Time;durP1;ratioP1;P1;durP2;ratioP2;P2;SDS_P1;SDS_P2;PMS_P1;PMS_P2;Temp;Humidity;BMP_temperature;BMP_pressure;BME280_temperature;BME280_humidity;BME280_pressure;Samples;Min_cycle;Max_cycle;Signal;HPM_P1;HPM_P2
2023/11/11 00:02:09;;;;;;;19.30;12.15;;;7.30;99.90;;;;;;4987201;28;20050;-62
2023/11/11 00:04:34;;;;;;;20.23;12.50;;;7.30;99.90;;;;;;4987135;28;20042;-63
2023/11/11 00:07:00;;;;;;;17.60;11.98;;;7.20;99.90;;;;;;4987246;28;20174;-63
2023/11/11 00:09:25;;;;;;;20.45;12.35;;;7.20;99.90;;;;;;4987495;28;20026;-63
2023/11/11 00:11:52;;;;;;;18.08;12.50;;;7.20;99.90;;;;;;4986960;28;20034;-62
2023/11/11 00:14:18;;;;;;;20.40;12.52;;;7.20;99.90;;;;;;4987148;28;20043;-62
2023/11/11 00:16:44;;;;;;;20.08;12.10;;;7.20;99.90;;;;;;4987008;28;20512;-62
2023/11/11 00:19:11;;;;;;;21.20;12.57;;;7.10;99.90;;;;;;4986869;28;20122;-62
2023/11/11 00:21:39;;;;;;;20.08;12.43;;;7.10;99.90;;;;;;4987259;28;20052;-63
2023/11/11 00:24:07;;;;;;;18.75;11.05;;;7.10;99.90;;;;;;4986896;28;20421;-62
2023/11/11 00:26:33;;;;;;;18.35;11.80;;;7.10;99.90;;;;;;4986565;28;20362;-63
2023/11/11 00:28:59;;;;;;;19.17;11.40;;;7.10;99.90;;;;;;4987529;28;20073;-63
2023/11/11 00:31:25;;;;;;;18.30;11.25;;;7.10;99.90;;;;;;4992106;28;20034;-63
2023/11/11 00:33:51;;;;;;;19.00;11.38;;;7.10;99.90;;;;;;4988873;28;20049;-62
2023/11/11 00:36:19;;;;;;;21.75;11.77;;;7.10;99.90;;;;;;4986476;28;20461;-63
2023/11/11 00:38:45;;;;;;;17.58;10.85;;;7.10;99.90;;;;;;4987573;28;20045;-62
2023/11/11 00:41:11;;;;;;;18.15;11.00;;;7.10;99.90;;;;;;4988139;28;20393;-62
2023/11/11 00:43:37;;;;;;;17.20;10.40;;;7.10;99.90;;;;;;4990864;28;20114;-63
2023/11/11 00:46:03;;;;;;;16.17;10.02;;;7.10;99.90;;;;;;4979592;28;20632;-62
2023/11/11 00:48:29;;;;;;;19.10;9.32;;;7.00;99.90;;;;;;4984630;28;20121;-62
2023/11/11 00:50:55;;;;;;;14.25;8.88;;;7.00;99.90;;;;;;4979737;28;20065;-62
2023/11/11 00:53:21;;;;;;;15.85;8.70;;;7.00;99.90;;;;;;4986280;28;20445;-62
2023/11/11 00:55:46;;;;;;;11.98;7.90;;;7.00;99.90;;;;;;4983729;28;20042;-62
2023/11/11 00:58:12;;;;;;;16.85;7.18;;;7.00;99.90;;;;;;4987515;28;20411;-62
2023/11/11 01:00:42;;;;;;;12.55;6.38;;;7.00;99.90;;;;;;4969380;28;20035;-62
2023/11/11 01:03:08;;;;;;;10.60;6.22;;;7.00;99.90;;;;;;4979145;28;20065;-62
2023/11/11 01:05:34;;;;;;;10.02;5.28;;;7.00;99.90;;;;;;4987330;28;20504;-63
2023/11/11 01:08:00;;;;;;;12.73;5.45;;;7.00;99.90;;;;;;4996653;28;20045;-62
2023/11/11 01:10:27;;;;;;;9.23;4.50;;;7.00;99.90;;;;;;4989647;28;20035;-62
2023/11/11 01:12:54;;;;;;;10.77;5.03;;;7.00;99.90;;;;;;4985227;28;20045;-62
2023/11/11 01:15:20;;;;;;;8.18;4.55;;;7.00;99.90;;;;;;4972813;28;20082;-62
2023/11/11 01:17:46;;;;;;;10.77;4.50;;;7.00;99.90;;;;;;4989875;28;20046;-62
2023/11/11 01:20:12;;;;;;;11.23;4.13;;;7.00;99.90;;;;;;4988819;28;20072;-62
2023/11/11 01:22:38;;;;;;;7.43;3.60;;;6.90;99.90;;;;;;4990022;28;20092;-62
2023/11/11 01:25:05;;;;;;;9.40;3.88;;;6.90;99.90;;;;;;4989587;28;20042;-63
2023/11/11 01:27:31;;;;;;;7.00;3.72;;;6.90;99.90;;;;;;4985006;28;20038;-62
2023/11/11 01:29:58;;;;;;;8.50;3.35;;;6.90;99.90;;;;;;4981223;28;20039;-62
2023/11/11 01:32:24;;;;;;;7.50;3.35;;;6.90;99.90;;;;;;4985559;28;20042;-63
2023/11/11 01:34:52;;;;;;;8.75;3.50;;;6.90;99.90;;;;;;4989363;28;20069;-62
2023/11/11 01:37:18;;;;;;;7.32;3.10;;;6.80;99.90;;;;;;4989414;28;20050;-63
2023/11/11 01:39:43;;;;;;;7.15;3.40;;;6.70;99.90;;;;;;4972548;28;20414;-62
2023/11/11 01:42:09;;;;;;;9.95;3.22;;;6.70;99.90;;;;;;4990030;28;20422;-62
2023/11/11 01:44:35;;;;;;;9.57;3.65;;;6.70;99.90;;;;;;4989103;28;20516;-62
2023/11/11 01:47:04;;;;;;;7.40;3.40;;;6.60;99.90;;;;;;4989717;28;20053;-62
2023/11/11 01:49:30;;;;;;;8.07;3.58;;;6.60;99.90;;;;;;4992608;28;20041;-62
2023/11/11 01:51:56;;;;;;;6.55;2.70;;;6.50;99.90;;;;;;4989525;28;20045;-62
2023/11/11 01:54:22;;;;;;;3.92;2.20;;;6.50;99.90;;;;;;4987824;28;20038;-62
2023/11/11 01:56:50;;;;;;;9.13;2.28;;;6.50;99.90;;;;;;4986561;28;20409;-62
2023/11/11 01:59:17;;;;;;;3.15;2.15;;;6.40;99.90;;;;;;4989905;28;20034;-62
2023/11/11 02:01:45;;;;;;;6.18;2.40;;;6.40;99.90;;;;;;4989118;28;20030;-62
2023/11/11 02:04:11;;;;;;;7.60;3.05;;;6.40;99.90;;;;;;4989292;28;20073;-62
2023/11/11 02:06:37;;;;;;;9.27;2.53;;;6.40;99.90;;;;;;4990623;28;20070;-62
2023/11/11 02:09:04;;;;;;;9.40;2.15;;;6.40;99.90;;;;;;4989626;28;20061;-62
2023/11/11 02:11:29;;;;;;;4.00;1.90;;;6.40;99.90;;;;;;4971189;28;20065;-62
2023/11/11 02:13:55;;;;;;;7.55;1.98;;;6.40;99.90;;;;;;4989348;28;20034;-62
2023/11/11 02:16:22;;;;;;;4.03;1.70;;;6.40;99.90;;;;;;4988441;28;20041;-63
2023/11/11 02:18:47;;;;;;;5.72;1.90;;;6.30;99.90;;;;;;4985043;28;20039;-62
2023/11/11 02:21:13;;;;;;;6.32;1.90;;;6.30;99.90;;;;;;4989090;28;20691;-62
2023/11/11 02:23:39;;;;;;;9.98;1.90;;;6.30;99.90;;;;;;4991021;28;20046;-62
2023/11/11 02:26:05;;;;;;;5.82;1.80;;;6.30;99.90;;;;;;4988469;28;20141;-62
2023/11/11 02:28:31;;;;;;;5.78;1.70;;;6.30;99.90;;;;;;4988847;28;20057;-62
2023/11/11 02:30:57;;;;;;;4.90;1.60;;;6.30;99.90;;;;;;4989130;28;20038;-62
2023/11/11 02:33:24;;;;;;;5.68;1.40;;;6.20;99.90;;;;;;4988826;28;20084;-62
2023/11/11 02:35:50;;;;;;;6.68;1.58;;;6.20;99.90;;;;;;4987376;28;20112;-62
2023/11/11 02:38:15;;;;;;;4.70;1.80;;;6.20;99.90;;;;;;4971149;28;20050;-62
2023/11/11 02:40:41;;;;;;;5.50;1.42;;;6.20;99.90;;;;;;4988988;28;20048;-62
2023/11/11 02:43:07;;;;;;;6.93;1.67;;;6.20;99.90;;;;;;4993662;28;20084;-62
2023/11/11 02:45:33;;;;;;;7.35;1.50;;;6.20;99.90;;;;;;4971017;28;20039;-62
2023/11/11 02:48:03;;;;;;;4.68;1.45;;;6.20;99.90;;;;;;4971788;28;20053;-62
2023/11/11 02:50:28;;;;;;;4.63;1.30;;;6.20;99.90;;;;;;4989322;28;20497;-62
2023/11/11 02:52:54;;;;;;;5.90;1.70;;;6.10;99.90;;;;;;4989138;28;20034;-62
2023/11/11 02:55:20;;;;;;;5.22;1.50;;;6.20;99.90;;;;;;4988875;28;20096;-62
2023/11/11 02:57:46;;;;;;;7.03;1.50;;;6.10;99.90;;;;;;4988864;28;20034;-62
2023/11/11 03:00:13;;;;;;;5.85;1.42;;;6.10;99.90;;;;;;4989485;28;20049;-62
2023/11/11 03:02:39;;;;;;;7.10;1.23;;;6.10;99.90;;;;;;4970817;28;20030;-62
2023/11/11 03:05:06;;;;;;;5.60;1.20;;;6.00;99.90;;;;;;4988556;28;20126;-62
2023/11/11 03:07:32;;;;;;;3.20;1.52;;;6.00;99.90;;;;;;4989539;28;20038;-62
2023/11/11 03:10:04;;;;;;;2.78;1.25;;;6.00;99.90;;;;;;4988846;28;20492;-62
2023/11/11 03:12:30;;;;;;;2.73;1.30;;;6.00;99.90;;;;;;4988855;28;20042;-62
2023/11/11 03:14:56;;;;;;;8.73;1.50;;;6.10;99.90;;;;;;4975101;28;20104;-62
2023/11/11 03:17:23;;;;;;;4.80;1.20;;;6.00;99.90;;;;;;4971076;28;20056;-62
2023/11/11 03:19:49;;;;;;;4.35;1.67;;;6.00;99.90;;;;;;4987213;28;20042;-62
2023/11/11 03:22:14;;;;;;;6.85;1.45;;;6.00;99.90;;;;;;4988789;28;20116;-62
2023/11/11 03:24:41;;;;;;;5.93;1.50;;;6.00;99.90;;;;;;4987353;28;20042;-62
2023/11/11 03:27:07;;;;;;;2.22;1.35;;;6.00;99.90;;;;;;4987349;28;20121;-62
2023/11/11 03:29:32;;;;;;;4.63;1.38;;;6.00;99.90;;;;;;4969784;28;20137;-62
2023/11/11 03:31:58;;;;;;;4.43;1.35;;;6.00;99.90;;;;;;4988377;28;20096;-62
2023/11/11 03:34:23;;;;;;;5.00;1.63;;;6.00;99.90;;;;;;4987976;28;20741;-62
2023/11/11 03:36:49;;;;;;;4.95;0.98;;;6.00;99.90;;;;;;4987496;28;20449;-62
2023/11/11 03:39:15;;;;;;;3.35;1.20;;;6.00;99.90;;;;;;4988279;28;20053;-62
2023/11/11 03:41:40;;;;;;;3.75;1.02;;;6.00;99.90;;;;;;4986552;28;20048;-62
2023/11/11 03:44:08;;;;;;;3.00;0.90;;;6.00;99.90;;;;;;4970396;28;20427;-62
2023/11/11 03:46:34;;;;;;;5.20;1.10;;;5.90;99.90;;;;;;4994138;28;20050;-62
2023/11/11 03:49:00;;;;;;;3.75;1.15;;;5.90;99.90;;;;;;4988516;28;20037;-62
2023/11/11 03:51:25;;;;;;;2.05;0.85;;;5.90;99.90;;;;;;4988319;28;20042;-62
2023/11/11 03:53:51;;;;;;;6.80;1.05;;;6.00;99.90;;;;;;4987733;28;20034;-62
2023/11/11 03:56:20;;;;;;;3.15;1.02;;;6.00;99.90;;;;;;4987837;28;20145;-63
2023/11/11 03:58:47;;;;;;;5.60;1.02;;;6.00;99.90;;;;;;4989455;28;20096;-62
2023/11/11 04:01:12;;;;;;;7.57;1.25;;;6.10;99.90;;;;;;4987917;28;20133;-63
2023/11/11 04:03:39;;;;;;;7.78;0.80;;;6.20;99.90;;;;;;4970048;28;20164;-63
2023/11/11 04:06:11;;;;;;;7.07;0.82;;;6.20;99.90;;;;;;4987561;28;20450;-63
2023/11/11 04:08:39;;;;;;;2.13;0.63;;;6.30;99.90;;;;;;4988128;28;20073;-62
2023/11/11 04:11:08;;;;;;;5.45;0.70;;;6.30;99.90;;;;;;4987634;28;20493;-63
2023/11/11 04:13:37;;;;;;;3.30;0.70;;;6.40;99.90;;;;;;4987632;28;20048;-63
2023/11/11 04:16:03;;;;;;;7.43;1.00;;;6.40;99.90;;;;;;4994321;28;20042;-63
2023/11/11 04:18:30;;;;;;;2.33;1.08;;;6.40;99.90;;;;;;4987853;28;20371;-63
2023/11/11 04:20:57;;;;;;;2.60;0.60;;;6.50;99.90;;;;;;4987433;28;20061;-63
2023/11/11 04:23:24;;;;;;;4.07;0.80;;;6.50;99.90;;;;;;4987742;28;20043;-63
2023/11/11 04:25:50;;;;;;;2.45;0.65;;;6.50;99.90;;;;;;4986941;28;20589;-63
2023/11/11 04:28:15;;;;;;;2.10;0.75;;;6.50;99.90;;;;;;4986453;28;20109;-63
2023/11/11 04:30:41;;;;;;;4.28;0.80;;;6.50;99.90;;;;;;4983687;28;20497;-63
2023/11/11 04:33:06;;;;;;;2.58;0.60;;;6.50;99.90;;;;;;4984874;28;20038;-63
2023/11/11 04:35:33;;;;;;;1.58;0.45;;;6.60;99.90;;;;;;4969670;28;20047;-63
2023/11/11 04:37:58;;;;;;;2.85;0.70;;;6.50;99.90;;;;;;4986789;28;20046;-63
2023/11/11 04:40:25;;;;;;;2.70;0.43;;;6.50;99.90;;;;;;4988538;28;20532;-63
2023/11/11 04:42:52;;;;;;;1.48;0.50;;;6.50;99.90;;;;;;4972276;28;20052;-63
2023/11/11 04:45:18;;;;;;;1.17;0.40;;;6.50;99.90;;;;;;4989556;28;20050;-63
2023/11/11 04:47:44;;;;;;;1.65;0.30;;;6.50;99.90;;;;;;4991578;28;20038;-63
2023/11/11 04:50:09;;;;;;;2.88;0.45;;;6.50;99.90;;;;;;4973366;28;20480;-63
2023/11/11 04:52:35;;;;;;;2.53;0.47;;;6.50;99.90;;;;;;4991485;28;20042;-63
2023/11/11 04:55:03;;;;;;;2.60;0.30;;;6.50;99.90;;;;;;4988939;28;20042;-63
2023/11/11 04:57:29;;;;;;;1.65;0.40;;;6.50;99.90;;;;;;4991081;28;20042;-63
2023/11/11 04:59:55;;;;;;;1.38;0.22;;;6.40;99.90;;;;;;4989014;28;20080;-63
2023/11/11 05:02:21;;;;;;;2.50;0.45;;;6.40;99.90;;;;;;4988791;28;20034;-63
2023/11/11 05:04:46;;;;;;;1.27;0.30;;;6.40;99.90;;;;;;4990666;28;20449;-63
2023/11/11 05:07:12;;;;;;;1.50;0.40;;;6.30;99.90;;;;;;4990934;28;20042;-63
2023/11/11 05:09:37;;;;;;;2.30;0.30;;;6.30;99.90;;;;;;4973563;28;20046;-63
2023/11/11 05:12:05;;;;;;;0.80;0.20;;;6.30;99.90;;;;;;4988836;28;20510;-63
2023/11/11 05:14:31;;;;;;;2.20;0.43;;;6.20;99.90;;;;;;4991000;28;20042;-63
2023/11/11 05:16:58;;;;;;;2.97;0.40;;;6.20;99.90;;;;;;4990634;28;20357;-63
2023/11/11 05:19:24;;;;;;;3.05;0.20;;;6.20;99.90;;;;;;4989947;28;20440;-63
2023/11/11 05:21:50;;;;;;;1.55;0.30;;;6.20;99.90;;;;;;4990994;28;20047;-63
2023/11/11 05:24:15;;;;;;;0.45;0.43;;;6.10;99.90;;;;;;4990195;28;20096;-63
2023/11/11 05:26:42;;;;;;;3.72;0.57;;;6.10;99.90;;;;;;4988857;28;20058;-63
2023/11/11 05:29:09;;;;;;;1.13;0.40;;;6.10;99.90;;;;;;4983988;28;20042;-63
2023/11/11 05:31:36;;;;;;;0.60;0.50;;;6.10;99.90;;;;;;4990347;28;20030;-63
2023/11/11 05:34:03;;;;;;;3.70;0.57;;;6.10;99.90;;;;;;4990437;28;20053;-63
2023/11/11 05:36:28;;;;;;;1.15;0.50;;;6.10;99.90;;;;;;4993063;28;20046;-63
2023/11/11 05:38:54;;;;;;;1.23;0.45;;;6.10;99.90;;;;;;4992077;28;20046;-63
2023/11/11 05:41:20;;;;;;;4.47;0.63;;;6.10;99.90;;;;;;4990182;28;20492;-63
2023/11/11 05:43:46;;;;;;;2.53;0.70;;;6.10;99.90;;;;;;4990143;28;20605;-63
2023/11/11 05:46:12;;;;;;;3.58;1.13;;;6.10;99.90;;;;;;4990038;28;20137;-62
2023/11/11 05:48:42;;;;;;;1.70;0.63;;;6.10;99.90;;;;;;4993407;28;20446;-63
2023/11/11 05:51:08;;;;;;;5.35;0.73;;;6.10;99.90;;;;;;4981905;28;20100;-63
2023/11/11 05:53:35;;;;;;;1.85;0.55;;;6.10;99.90;;;;;;4989794;28;20045;-63
2023/11/11 05:56:01;;;;;;;9.88;0.77;;;6.10;99.90;;;;;;4982375;28;20057;-63
2023/11/11 05:58:26;;;;;;;6.30;1.02;;;6.10;99.90;;;;;;4990152;28;20128;-63
2023/11/11 06:00:52;;;;;;;4.25;0.93;;;6.10;99.90;;;;;;4990080;28;20097;-63
2023/11/11 06:03:18;;;;;;;2.67;0.70;;;6.20;99.90;;;;;;4990041;28;20306;-63
2023/11/11 06:05:47;;;;;;;2.83;0.80;;;6.20;99.90;;;;;;4989348;28;20046;-63
2023/11/11 06:08:13;;;;;;;2.38;0.75;;;6.20;99.90;;;;;;4989755;28;20034;-62
2023/11/11 06:10:39;;;;;;;1.80;0.80;;;6.20;99.90;;;;;;4997005;28;20406;-63
2023/11/11 06:13:09;;;;;;;8.02;1.35;;;6.20;99.90;;;;;;4990205;28;20038;-63
2023/11/11 06:15:35;;;;;;;2.00;0.93;;;6.30;99.90;;;;;;4971643;28;20141;-63
2023/11/11 06:18:02;;;;;;;7.78;1.17;;;6.30;99.90;;;;;;4996440;28;20042;-63
2023/11/11 06:20:30;;;;;;;4.18;0.90;;;6.30;99.90;;;;;;4987813;28;20125;-63
2023/11/11 06:22:57;;;;;;;3.63;0.90;;;6.30;99.90;;;;;;4970916;28;20074;-63
2023/11/11 06:25:24;;;;;;;2.90;0.98;;;6.30;99.90;;;;;;4971439;28;20217;-63
2023/11/11 06:27:50;;;;;;;4.35;1.10;;;6.30;99.90;;;;;;4988169;28;20476;-63
2023/11/11 06:30:20;;;;;;;4.20;0.90;;;6.30;99.90;;;;;;4975991;28;20121;-63
2023/11/11 06:32:52;;;;;;;3.40;1.10;;;6.30;99.90;;;;;;4965419;28;20089;-63
2023/11/11 06:35:27;;;;;;;5.30;1.13;;;6.30;99.90;;;;;;4989220;28;20073;-63
2023/11/11 06:37:56;;;;;;;4.97;1.00;;;6.30;99.90;;;;;;4989033;28;20101;-63
2023/11/11 06:40:23;;;;;;;6.30;1.20;;;6.30;99.90;;;;;;4971947;28;20050;-62
2023/11/11 06:42:49;;;;;;;5.47;1.70;;;6.30;99.90;;;;;;4971535;28;20057;-63
2023/11/11 06:45:15;;;;;;;7.20;1.27;;;6.30;99.90;;;;;;4981563;28;20050;-63
2023/11/11 06:47:43;;;;;;;4.97;1.20;;;6.20;99.90;;;;;;4989188;28;20077;-62
2023/11/11 06:50:09;;;;;;;4.53;1.30;;;6.30;99.90;;;;;;4992462;28;20098;-62
2023/11/11 06:52:35;;;;;;;5.35;1.25;;;6.30;99.90;;;;;;4988970;28;20129;-63
2023/11/11 06:55:05;;;;;;;3.13;1.10;;;6.30;99.90;;;;;;4988433;28;20038;-63
2023/11/11 06:57:30;;;;;;;6.40;1.35;;;6.30;99.90;;;;;;4989444;28;20050;-63
2023/11/11 06:59:56;;;;;;;5.38;1.00;;;6.30;99.90;;;;;;4971668;28;20104;-63
2023/11/11 07:02:22;;;;;;;6.90;1.60;;;6.30;99.90;;;;;;4988458;28;20050;-62
2023/11/11 07:04:53;;;;;;;7.45;1.10;;;6.30;99.90;;;;;;4984843;28;20038;-63
2023/11/11 07:07:22;;;;;;;6.07;1.15;;;6.40;99.90;;;;;;4988574;28;20038;-63
2023/11/11 07:09:51;;;;;;;4.53;0.90;;;6.40;99.90;;;;;;4988470;28;20046;-63
2023/11/11 07:12:18;;;;;;;3.63;0.95;;;6.40;99.90;;;;;;4993892;28;20061;-63
2023/11/11 07:14:46;;;;;;;4.97;1.00;;;6.40;99.90;;;;;;4988794;28;20473;-63
2023/11/11 07:17:12;;;;;;;3.03;0.90;;;6.50;99.90;;;;;;4981237;28;20034;-63
2023/11/11 07:19:38;;;;;;;4.65;1.23;;;6.50;99.90;;;;;;4984908;28;20085;-63
2023/11/11 07:22:04;;;;;;;4.47;0.80;;;6.60;99.90;;;;;;4970321;28;20061;-63
2023/11/11 07:24:29;;;;;;;5.10;1.20;;;6.60;99.90;;;;;;4988011;28;20045;-63
2023/11/11 07:26:55;;;;;;;4.05;1.02;;;6.60;99.90;;;;;;4987981;28;20093;-63
2023/11/11 07:29:25;;;;;;;2.13;0.70;;;6.60;99.90;;;;;;4970781;28;20046;-62
2023/11/11 07:31:51;;;;;;;3.53;0.80;;;6.60;99.90;;;;;;4982129;28;20121;-63
2023/11/11 07:34:17;;;;;;;2.38;0.70;;;6.60;99.90;;;;;;4988423;28;20074;-62
2023/11/11 07:36:42;;;;;;;1.75;0.57;;;6.60;99.90;;;;;;4970129;28;20073;-63
2023/11/11 07:39:08;;;;;;;4.10;1.40;;;6.60;99.90;;;;;;4986791;28;20046;-63
2023/11/11 07:41:34;;;;;;;1.38;0.60;;;6.70;99.90;;;;;;4987694;28;20046;-63
2023/11/11 07:44:04;;;;;;;2.83;0.60;;;6.60;99.90;;;;;;4987684;28;20176;-63
2023/11/11 07:46:32;;;;;;;2.03;0.65;;;6.70;99.90;;;;;;4987670;28;20046;-63
2023/11/11 07:48:59;;;;;;;1.83;0.60;;;6.70;99.90;;;;;;4987681;28;20089;-63
2023/11/11 07:51:25;;;;;;;1.63;0.60;;;6.70;99.90;;;;;;4987432;28;20502;-63
2023/11/11 07:53:51;;;;;;;1.67;0.77;;;6.70;99.90;;;;;;4987996;28;20054;-63
2023/11/11 07:56:17;;;;;;;2.72;0.80;;;6.70;99.90;;;;;;4987519;28;20049;-63
2023/11/11 07:58:42;;;;;;;3.45;0.80;;;6.70;99.90;;;;;;4969423;28;20056;-63
2023/11/11 08:01:08;;;;;;;3.95;0.80;;;6.70;99.90;;;;;;4987969;28;20390;-63
2023/11/11 08:03:34;;;;;;;5.10;1.20;;;6.70;99.90;;;;;;4988423;28;20042;-62
2023/11/11 08:05:59;;;;;;;3.20;1.13;;;6.70;99.90;;;;;;4987079;28;20038;-64
2023/11/11 08:08:27;;;;;;;3.65;1.20;;;6.80;99.90;;;;;;4987264;28;20045;-63
2023/11/11 08:10:54;;;;;;;4.47;1.38;;;6.70;99.90;;;;;;4987646;28;20046;-63
2023/11/11 08:13:19;;;;;;;3.30;1.38;;;6.70;99.90;;;;;;4987249;28;20042;-63
2023/11/11 08:15:45;;;;;;;7.18;1.27;;;6.80;99.90;;;;;;4968897;28;20508;-63
2023/11/11 08:18:11;;;;;;;5.88;1.20;;;6.70;99.90;;;;;;4970332;28;20046;-63
2023/11/11 08:20:37;;;;;;;5.10;1.42;;;6.70;99.90;;;;;;4969848;28;20057;-62
2023/11/11 08:23:03;;;;;;;2.40;0.75;;;6.70;99.90;;;;;;4987703;28;20385;-63
2023/11/11 08:25:28;;;;;;;4.68;0.95;;;6.70;99.90;;;;;;4985273;28;20034;-63
2023/11/11 08:27:55;;;;;;;3.03;1.20;;;6.70;99.90;;;;;;4987195;28;20192;-63
2023/11/11 08:30:22;;;;;;;5.47;1.00;;;6.70;99.90;;;;;;4970079;28;20046;-63
2023/11/11 08:32:48;;;;;;;3.60;0.80;;;6.70;99.90;;;;;;4986730;28;20042;-63
2023/11/11 08:35:15;;;;;;;1.08;0.80;;;6.70;99.90;;;;;;4983993;28;20053;-63
2023/11/11 08:37:45;;;;;;;1.00;0.70;;;6.70;99.90;;;;;;4987595;28;20046;-63
2023/11/11 08:40:12;;;;;;;2.88;0.80;;;6.80;99.90;;;;;;4961933;28;20524;-62
2023/11/11 08:42:39;;;;;;;2.55;0.80;;;6.80;99.90;;;;;;4987452;28;20053;-63
2023/11/11 08:45:09;;;;;;;1.95;0.68;;;6.70;99.90;;;;;;4986508;28;20409;-63
2023/11/11 08:47:34;;;;;;;4.32;1.10;;;6.70;99.90;;;;;;4969609;28;20393;-63
2023/11/11 08:50:03;;;;;;;4.28;0.93;;;6.70;99.90;;;;;;4986438;28;20050;-63
2023/11/11 08:52:28;;;;;;;2.35;0.80;;;6.70;99.90;;;;;;4989771;28;20504;-63
2023/11/11 08:54:54;;;;;;;3.85;0.90;;;6.70;99.90;;;;;;4985212;28;20050;-63
2023/11/11 08:57:19;;;;;;;1.02;0.70;;;6.80;99.90;;;;;;4980955;28;20042;-63
2023/11/11 08:59:45;;;;;;;3.35;0.95;;;6.80;99.90;;;;;;4986753;28;20125;-61
2023/11/11 09:02:11;;;;;;;2.00;0.77;;;6.80;99.90;;;;;;4984637;28;20054;-63
2023/11/11 09:04:37;;;;;;;2.88;0.90;;;6.80;99.90;;;;;;4986727;28;20122;-63
2023/11/11 09:07:03;;;;;;;2.35;0.85;;;6.80;99.90;;;;;;4986379;28;20516;-63
2023/11/11 09:09:29;;;;;;;6.03;1.40;;;6.90;99.90;;;;;;4986604;28;20058;-63
2023/11/11 09:11:57;;;;;;;2.72;1.27;;;6.90;99.90;;;;;;4986067;28;20046;-63
2023/11/11 09:14:23;;;;;;;3.92;1.58;;;6.90;99.90;;;;;;4968448;28;20046;-63
2023/11/11 09:16:48;;;;;;;3.20;1.30;;;6.90;99.90;;;;;;4977914;28;20049;-63
2023/11/11 09:19:14;;;;;;;3.10;1.65;;;7.00;99.90;;;;;;4986301;28;20050;-63
2023/11/11 09:21:40;;;;;;;5.05;1.40;;;7.00;99.90;;;;;;4984993;28;20433;-63
2023/11/11 09:24:07;;;;;;;4.95;1.90;;;7.00;99.90;;;;;;4978778;28;20042;-63
2023/11/11 09:26:32;;;;;;;10.52;2.20;;;7.00;99.90;;;;;;4983883;28;20038;-63
2023/11/11 09:28:59;;;;;;;8.25;2.20;;;7.10;99.90;;;;;;4990207;28;20065;-63
2023/11/11 09:31:28;;;;;;;6.65;2.08;;;7.20;99.90;;;;;;4990379;28;20050;-63
2023/11/11 09:34:00;;;;;;;7.32;2.17;;;7.20;99.90;;;;;;4989784;28;20426;-64
2023/11/11 09:36:26;;;;;;;3.92;1.88;;;7.30;99.90;;;;;;4990818;28;20536;-63
2023/11/11 09:38:52;;;;;;;8.18;2.30;;;7.40;99.90;;;;;;4974376;28;20050;-63
2023/11/11 09:41:18;;;;;;;6.10;2.10;;;7.50;99.90;;;;;;4972558;28;20049;-63
2023/11/11 09:43:44;;;;;;;6.00;2.03;;;7.50;99.90;;;;;;4989322;28;20034;-63
2023/11/11 09:46:15;;;;;;;7.10;2.58;;;7.60;99.90;;;;;;4979439;28;20437;-63
2023/11/11 09:48:42;;;;;;;5.55;2.05;;;7.80;99.90;;;;;;4971618;28;20042;-63
2023/11/11 09:51:12;;;;;;;12.25;2.38;;;7.90;99.90;;;;;;4989547;28;20080;-63
2023/11/11 09:53:40;;;;;;;6.22;2.25;;;8.00;99.90;;;;;;4978977;28;20438;-63
2023/11/11 09:56:07;;;;;;;5.28;1.90;;;8.00;99.90;;;;;;4989234;28;20425;-63
2023/11/11 09:58:34;;;;;;;7.60;2.35;;;8.10;99.90;;;;;;4995641;28;20042;-62
2023/11/11 10:01:00;;;;;;;6.53;2.17;;;8.10;99.90;;;;;;4972743;28;20114;-63
2023/11/11 10:03:25;;;;;;;4.88;2.22;;;8.10;99.90;;;;;;4972236;28;20058;-63
2023/11/11 10:05:51;;;;;;;6.32;2.42;;;8.10;99.90;;;;;;4990255;28;20397;-63
2023/11/11 10:08:17;;;;;;;7.28;2.00;;;8.10;99.90;;;;;;4989729;28;20609;-63
2023/11/11 10:10:42;;;;;;;5.43;2.00;;;8.00;99.90;;;;;;4990435;28;20046;-61
2023/11/11 10:13:08;;;;;;;6.85;2.20;;;8.00;99.90;;;;;;4980131;28;20048;-64
2023/11/11 10:15:34;;;;;;;5.50;2.15;;;8.00;99.90;;;;;;4988830;28;20180;-62
2023/11/11 10:18:05;;;;;;;6.90;2.58;;;7.90;99.90;;;;;;4989711;28;20038;-63
2023/11/11 10:20:31;;;;;;;8.32;2.05;;;7.90;99.90;;;;;;4971702;28;20493;-63
2023/11/11 10:23:00;;;;;;;10.75;2.30;;;7.90;99.90;;;;;;4985551;28;20049;-64
2023/11/11 10:25:26;;;;;;;7.15;2.13;;;7.90;99.90;;;;;;4989125;28;20492;-63
2023/11/11 10:27:54;;;;;;;7.78;2.17;;;7.90;99.90;;;;;;4988815;28;20035;-62
2023/11/11 10:30:23;;;;;;;5.55;2.00;;;7.90;99.90;;;;;;4994416;28;20042;-62
2023/11/11 10:32:50;;;;;;;5.07;1.85;;;7.90;99.90;;;;;;4990892;28;20041;-63
2023/11/11 10:35:20;;;;;;;5.50;1.80;;;8.00;99.90;;;;;;4988712;28;20094;-64
2023/11/11 10:37:47;;;;;;;9.38;1.90;;;8.00;99.90;;;;;;4988521;28;20128;-63
2023/11/11 10:40:16;;;;;;;6.15;2.30;;;8.00;99.90;;;;;;4986110;28;20074;-63
2023/11/11 10:42:46;;;;;;;8.13;1.90;;;8.00;99.90;;;;;;4989390;28;20064;-64
2023/11/11 10:45:15;;;;;;;10.75;2.25;;;8.00;99.90;;;;;;4980608;28;20160;-62
2023/11/11 10:47:41;;;;;;;6.20;1.80;;;8.10;99.90;;;;;;4988905;28;20779;-63
2023/11/11 10:50:07;;;;;;;5.55;1.67;;;8.10;99.90;;;;;;4988553;28;20176;-63
2023/11/11 10:52:35;;;;;;;3.35;1.33;;;8.10;99.90;;;;;;4988738;28;20473;-63
2023/11/11 10:55:05;;;;;;;4.47;1.38;;;8.20;99.90;;;;;;4988147;28;20046;-62
2023/11/11 10:57:32;;;;;;;3.13;1.55;;;8.20;99.90;;;;;;4971401;28;20512;-63
2023/11/11 10:59:59;;;;;;;4.13;1.20;;;8.30;99.90;;;;;;4976031;28;20077;-63
2023/11/11 11:02:28;;;;;;;2.00;1.20;;;8.30;99.90;;;;;;4988631;28;20331;-63
2023/11/11 11:04:59;;;;;;;5.00;1.10;;;8.30;99.90;;;;;;4970235;28;20490;-63
2023/11/11 11:07:29;;;;;;;2.15;0.70;;;8.40;99.90;;;;;;4988851;28;20077;-63
2023/11/11 11:10:07;;;;;;;5.70;1.30;;;8.40;99.90;;;;;;4988458;28;20047;-62
2023/11/11 11:12:48;;;;;;;5.28;0.73;;;8.40;99.90;;;;;;4983409;28;20361;-63
2023/11/11 11:15:14;;;;;;;2.20;0.80;;;8.40;99.90;;;;;;4986645;28;20052;-63
2023/11/11 11:17:43;;;;;;;3.67;0.90;;;8.40;99.90;;;;;;4984590;28;20042;-63
2023/11/11 11:20:14;;;;;;;4.25;0.70;;;8.40;99.90;;;;;;4982059;28;20034;-61
2023/11/11 11:22:42;;;;;;;3.03;0.63;;;8.50;99.90;;;;;;4984293;28;20547;-63
2023/11/11 11:25:29;;;;;;;3.53;1.02;;;8.60;99.90;;;;;;4988579;28;20046;-62
2023/11/11 11:28:10;;;;;;;1.77;0.68;;;8.80;99.90;;;;;;4968842;28;20097;-63
2023/11/11 11:30:39;;;;;;;1.75;0.90;;;9.00;99.90;;;;;;4987562;28;20050;-63
2023/11/11 11:33:06;;;;;;;3.33;1.00;;;9.20;99.90;;;;;;4970245;28;20048;-63
2023/11/11 11:35:35;;;;;;;3.85;0.70;;;9.40;99.90;;;;;;4987960;28;20056;-61
2023/11/11 11:38:01;;;;;;;2.17;0.70;;;9.50;99.90;;;;;;4993486;28;20409;-63
2023/11/11 11:40:28;;;;;;;2.97;0.80;;;9.60;99.90;;;;;;4970662;28;20102;-64
2023/11/11 11:42:56;;;;;;;3.70;0.73;;;9.70;99.90;;;;;;4987405;28;20058;-63
2023/11/11 11:45:28;;;;;;;3.22;0.70;;;9.70;99.90;;;;;;4989615;28;20045;-63
2023/11/11 11:47:54;;;;;;;2.67;0.73;;;9.70;99.90;;;;;;4987113;28;20042;-63
2023/11/11 11:50:21;;;;;;;4.43;0.77;;;9.80;99.90;;;;;;4987050;28;20042;-62
2023/11/11 11:52:47;;;;;;;4.13;0.93;;;9.80;99.90;;;;;;4970579;28;20406;-64
2023/11/11 11:55:14;;;;;;;4.63;0.95;;;9.90;99.90;;;;;;4987073;28;20043;-63
2023/11/11 11:57:55;;;;;;;3.65;0.70;;;10.00;99.90;;;;;;4987848;28;20042;-63
2023/11/11 12:00:21;;;;;;;4.20;1.25;;;10.00;99.90;;;;;;4990959;28;20042;-63
2023/11/11 12:02:48;;;;;;;3.83;0.80;;;10.00;99.90;;;;;;4987677;28;20121;-63
2023/11/11 12:05:13;;;;;;;4.25;1.10;;;10.10;99.90;;;;;;4994059;28;20112;-63
2023/11/11 12:07:40;;;;;;;4.13;0.80;;;10.20;99.90;;;;;;4992915;28;20600;-61
2023/11/11 12:10:09;;;;;;;4.97;0.70;;;10.10;99.90;;;;;;4986620;28;20520;-61
2023/11/11 12:12:35;;;;;;;3.13;0.70;;;10.10;99.90;;;;;;4987222;28;20041;-62
2023/11/11 12:15:08;;;;;;;4.45;0.65;;;10.00;99.90;;;;;;4987333;28;20046;-63
2023/11/11 12:17:34;;;;;;;2.30;0.70;;;9.90;99.90;;;;;;4983492;28;20038;-61
2023/11/11 12:20:00;;;;;;;1.52;0.60;;;9.80;99.90;;;;;;4987219;28;20064;-60
2023/11/11 12:22:26;;;;;;;2.13;0.75;;;9.70;99.90;;;;;;4987311;28;20053;-60
2023/11/11 12:24:56;;;;;;;6.03;0.95;;;9.60;99.90;;;;;;4987214;28;20065;-62
2023/11/11 12:27:21;;;;;;;2.35;0.90;;;9.60;99.90;;;;;;4986912;28;20034;-61
2023/11/11 12:29:48;;;;;;;2.03;0.70;;;9.50;99.90;;;;;;4987418;28;20034;-63
2023/11/11 12:32:14;;;;;;;3.65;0.80;;;9.50;99.90;;;;;;4969771;28;20121;-63
2023/11/11 12:34:41;;;;;;;5.38;0.90;;;9.50;99.90;;;;;;4983940;28;20122;-61
2023/11/11 12:37:07;;;;;;;1.95;0.77;;;9.50;99.90;;;;;;4993282;28;20041;-63
2023/11/11 12:39:34;;;;;;;4.13;0.93;;;9.50;99.90;;;;;;4987704;28;20042;-61
2023/11/11 12:42:03;;;;;;;2.45;0.80;;;9.60;99.90;;;;;;4987122;28;20042;-62
2023/11/11 12:44:37;;;;;;;4.47;1.02;;;9.60;99.90;;;;;;4994439;28;20053;-61
2023/11/11 12:47:09;;;;;;;5.60;1.45;;;9.60;99.90;;;;;;4969837;28;20093;-61
2023/11/11 12:49:37;;;;;;;6.05;1.20;;;9.70;99.90;;;;;;4987845;28;20125;-60
2023/11/11 12:52:24;;;;;;;3.58;1.10;;;9.70;99.90;;;;;;4991418;28;20097;-61
2023/11/11 12:54:49;;;;;;;5.47;1.00;;;9.70;99.90;;;;;;4986953;28;20042;-62